Hanover Beach, Indiana
Current Conditions -  °F | °C
As of 7:12 AM on Friday 19 Dec 2014 (Local Time) from KIMS Reporting Station
Clear Clear  
Wind Chill: 23°   Ceiling: Unl
Heat Index: 23°   Visibility: 4mi
Dew Point: 21°   Wind: 0mph
Humidity: 93%   Direction: NA
Pressure: 30.28"   Gusts: NA
Location:  38.7056°N, 85.4906°W
Report Text: KIMS 191212Z AUTO 00000KT 4SM CLR M05/M06 A3028 RMK AO1
Loading
Personal Weather Stations






























Interactive Weather Map New forecast layout! Learn more

10-Day Weather Forecast

Advertisements
Track Severe Weather on mobile